Time;durP1;ratioP1;P1;durP2;ratioP2;P2;SDS_P1;SDS_P2;PMS_P1;PMS_P2;Temp;Humidity;BMP_temperature;BMP_pressure;BME280_temperature;BME280_humidity;BME280_pressure;Samples;Min_cycle;Max_cycle;Signal;HPM_P1;HPM_P2
2022/06/02 00:02:06;;;;;;;25.83;9.00;;;24.40;91.40;;;;;;5093552;28;20042;-67
2022/06/02 00:04:55;;;;;;;21.70;8.68;;;24.40;91.40;;;;;;5093587;28;20047;-68
2022/06/02 00:07:43;;;;;;;27.83;9.35;;;24.30;91.70;;;;;;5066802;28;20052;-64
2022/06/02 00:10:17;;;;;;;21.13;8.05;;;24.30;91.90;;;;;;5093350;28;20031;-65
2022/06/02 00:12:51;;;;;;;27.48;9.05;;;24.30;92.30;;;;;;5093344;28;20541;-66
2022/06/02 00:15:35;;;;;;;25.98;8.75;;;24.30;92.20;;;;;;5093558;28;20534;-66
2022/06/02 00:18:19;;;;;;;28.67;8.43;;;24.30;92.10;;;;;;5093869;28;20077;-65
2022/06/02 00:20:44;;;;;;;18.02;8.38;;;24.30;92.50;;;;;;5092964;28;20048;-66
2022/06/02 00:23:22;;;;;;;21.30;7.85;;;24.30;92.30;;;;;;5093261;28;20042;-65
2022/06/02 00:26:00;;;;;;;18.83;7.68;;;24.30;92.30;;;;;;5093145;28;20027;-65
2022/06/02 00:28:58;;;;;;;21.20;7.97;;;24.30;92.00;;;;;;5093300;28;20020;-66
2022/06/02 00:31:36;;;;;;;21.77;7.85;;;24.30;91.80;;;;;;5093289;28;20416;-65
2022/06/02 00:34:26;;;;;;;23.52;8.38;;;24.30;91.60;;;;;;5093495;28;20026;-65
2022/06/02 00:37:00;;;;;;;22.60;7.40;;;24.20;91.70;;;;;;5092956;28;20498;-66
2022/06/02 00:39:29;;;;;;;26.15;7.55;;;24.20;91.20;;;;;;5092787;28;20024;-65
2022/06/02 00:42:13;;;;;;;21.05;8.00;;;24.20;91.20;;;;;;5092885;28;20024;-65
2022/06/02 00:44:39;;;;;;;25.90;9.18;;;24.20;91.50;;;;;;5092309;28;20088;-66
2022/06/02 00:47:26;;;;;;;19.92;7.70;;;24.10;91.40;;;;;;5093009;28;20465;-66
2022/06/02 00:49:58;;;;;;;18.00;7.03;;;24.20;91.60;;;;;;5092902;28;20089;-65
2022/06/02 00:52:54;;;;;;;22.58;8.15;;;24.10;91.90;;;;;;5092922;28;20068;-65
2022/06/02 00:59:05;;;;;;;21.45;8.65;;;24.10;92.20;;;;;;5054832;28;20511;-65
2022/06/02 01:01:36;;;;;;;21.88;7.95;;;24.00;92.60;;;;;;5092789;28;20168;-66
2022/06/02 01:04:10;;;;;;;22.52;7.97;;;24.00;92.60;;;;;;5092748;28;20028;-64
2022/06/02 01:06:59;;;;;;;22.45;8.45;;;24.00;92.60;;;;;;5092738;28;20164;-65
2022/06/02 01:10:01;;;;;;;31.35;8.77;;;24.00;92.90;;;;;;5092709;28;20120;-65
2022/06/02 01:12:42;;;;;;;13.63;6.60;;;24.10;92.20;;;;;;5092655;28;20086;-65
2022/06/02 01:15:35;;;;;;;17.02;7.10;;;24.10;90.90;;;;;;5093083;28;20102;-66
2022/06/02 01:18:16;;;;;;;16.35;6.95;;;24.10;90.00;;;;;;5092731;28;20107;-64
2022/06/02 01:20:54;;;;;;;22.50;7.47;;;24.10;89.60;;;;;;5092243;28;20074;-64
2022/06/02 01:24:02;;;;;;;16.95;7.18;;;24.20;88.80;;;;;;5092641;28;20028;-64
2022/06/02 01:27:07;;;;;;;21.23;7.35;;;24.20;87.90;;;;;;5077168;28;20032;-65
2022/06/02 01:30:03;;;;;;;19.75;7.35;;;24.10;87.20;;;;;;5092510;28;20024;-65
2022/06/02 01:33:02;;;;;;;18.35;6.47;;;24.00;86.80;;;;;;5092603;28;20027;-65
2022/06/02 01:35:43;;;;;;;17.33;7.03;;;24.00;86.50;;;;;;5092429;28;20029;-66
2022/06/02 01:38:25;;;;;;;21.83;7.40;;;23.90;86.00;;;;;;5092423;28;20097;-66
2022/06/02 01:40:59;;;;;;;19.27;7.45;;;23.80;85.90;;;;;;5092148;28;20035;-64
2022/06/02 01:43:58;;;;;;;22.33;7.55;;;23.80;85.00;;;;;;5092937;28;20404;-66
2022/06/02 01:46:35;;;;;;;27.88;7.53;;;23.80;85.70;;;;;;5092333;28;20102;-65
2022/06/02 01:49:22;;;;;;;19.33;7.43;;;23.70;85.60;;;;;;5092186;28;20032;-66
2022/06/02 01:52:18;;;;;;;20.42;7.20;;;23.70;85.80;;;;;;5092384;28;20028;-67
2022/06/02 01:55:16;;;;;;;18.25;6.95;;;23.70;85.50;;;;;;5092597;28;20043;-67
2022/06/02 01:57:45;;;;;;;22.27;7.38;;;23.60;85.30;;;;;;5096271;28;20107;-66
2022/06/02 02:00:18;;;;;;;18.45;7.07;;;23.60;84.90;;;;;;5095822;28;20093;-65
2022/06/02 02:03:07;;;;;;;21.80;6.60;;;23.60;83.70;;;;;;5096146;28;20106;-66
2022/06/02 02:05:51;;;;;;;21.13;7.65;;;23.60;84.60;;;;;;5096025;28;20097;-66
2022/06/02 02:08:23;;;;;;;17.27;7.72;;;23.60;82.80;;;;;;5096599;28;20053;-67
2022/06/02 02:11:23;;;;;;;21.60;7.35;;;23.60;83.70;;;;;;5095982;28;20032;-65
2022/06/02 02:14:04;;;;;;;23.42;7.80;;;23.50;83.30;;;;;;5045935;28;20119;-65
2022/06/02 02:16:54;;;;;;;17.48;7.53;;;23.50;82.60;;;;;;5095884;28;20031;-65
2022/06/02 02:19:49;;;;;;;20.35;8.00;;;23.50;83.20;;;;;;5095736;28;20020;-65
2022/06/02 02:22:24;;;;;;;22.00;7.90;;;23.40;82.90;;;;;;5095619;28;20036;-65
2022/06/02 02:25:01;;;;;;;20.50;7.32;;;23.40;82.90;;;;;;5095793;28;20063;-67
2022/06/02 02:28:04;;;;;;;21.15;8.35;;;23.40;83.20;;;;;;5095572;28;20026;-65
2022/06/02 02:30:35;;;;;;;18.90;7.20;;;23.30;82.90;;;;;;5095430;28;20035;-65
2022/06/02 02:33:11;;;;;;;18.95;7.38;;;23.30;82.80;;;;;;5095569;28;20058;-65
2022/06/02 02:35:56;;;;;;;19.45;7.30;;;23.30;82.90;;;;;;5095604;28;20020;-65
2022/06/02 02:38:45;;;;;;;15.95;6.97;;;23.30;83.00;;;;;;5095488;28;20070;-65
2022/06/02 02:41:17;;;;;;;15.68;6.95;;;23.30;83.00;;;;;;5095890;28;20032;-67
2022/06/02 02:44:02;;;;;;;19.23;6.63;;;23.30;82.30;;;;;;5095456;28;20028;-67
2022/06/02 02:46:44;;;;;;;16.27;7.07;;;23.30;82.90;;;;;;5095328;28;20027;-66
2022/06/02 02:49:17;;;;;;;17.17;7.47;;;23.30;82.70;;;;;;5095126;28;20020;-66
2022/06/02 02:51:51;;;;;;;17.67;8.00;;;23.40;82.70;;;;;;5095182;28;20060;-65
2022/06/02 02:54:28;;;;;;;23.90;8.20;;;23.40;82.10;;;;;;5095126;28;20016;-65
2022/06/02 02:57:04;;;;;;;21.67;7.80;;;23.40;82.20;;;;;;5094993;28;20508;-66
2022/06/02 02:59:30;;;;;;;20.20;8.15;;;23.40;81.80;;;;;;5076930;28;20032;-66
2022/06/02 03:02:14;;;;;;;16.80;7.15;;;23.40;82.60;;;;;;5094760;28;20061;-66
2022/06/02 03:04:53;;;;;;;18.88;7.45;;;23.40;82.20;;;;;;5095149;28;20020;-67
2022/06/02 03:07:20;;;;;;;21.90;7.88;;;23.40;82.60;;;;;;5075790;28;20415;-66
2022/06/02 03:09:58;;;;;;;23.98;7.65;;;23.40;82.10;;;;;;5094405;28;20388;-66
2022/06/02 03:12:38;;;;;;;25.50;7.82;;;23.40;82.80;;;;;;5094706;28;20055;-67
2022/06/02 03:15:23;;;;;;;18.27;7.90;;;23.40;84.30;;;;;;5094779;28;20526;-66
2022/06/02 03:18:26;;;;;;;15.10;7.28;;;23.30;86.20;;;;;;5095101;28;20461;-65
2022/06/02 03:20:52;;;;;;;23.37;7.47;;;23.30;85.60;;;;;;5094461;28;20055;-66
2022/06/02 03:23:18;;;;;;;16.48;7.00;;;23.30;85.00;;;;;;5094699;28;20026;-68
2022/06/02 03:26:08;;;;;;;18.48;7.32;;;23.30;84.80;;;;;;5094570;28;20538;-66
2022/06/02 03:28:58;;;;;;;16.55;7.03;;;23.30;85.00;;;;;;5094356;28;20217;-66
2022/06/02 03:31:37;;;;;;;20.40;7.30;;;23.30;84.80;;;;;;5077931;28;20514;-66
2022/06/02 03:34:22;;;;;;;18.23;7.28;;;23.20;85.10;;;;;;5094395;28;20123;-66
2022/06/02 03:36:51;;;;;;;22.48;8.77;;;23.20;85.70;;;;;;5094340;28;20384;-67
2022/06/02 03:39:35;;;;;;;22.23;7.60;;;23.10;86.00;;;;;;5094173;28;20461;-66
2022/06/02 03:42:25;;;;;;;21.52;7.63;;;23.10;86.50;;;;;;5094619;28;20051;-66
2022/06/02 03:45:23;;;;;;;20.10;7.75;;;23.10;86.60;;;;;;5094173;28;20069;-66
2022/06/02 03:48:07;;;;;;;23.42;8.15;;;23.20;86.90;;;;;;5038558;28;20028;-66
2022/06/02 03:50:56;;;;;;;20.88;7.47;;;23.20;87.10;;;;;;5093739;28;20023;-66
2022/06/02 03:54:01;;;;;;;29.10;9.00;;;23.20;87.40;;;;;;5075589;28;20429;-66
2022/06/02 03:56:36;;;;;;;18.52;8.10;;;23.20;87.40;;;;;;5094213;28;20028;-64
2022/06/02 03:59:17;;;;;;;25.20;8.43;;;23.10;87.00;;;;;;5094007;28;20086;-65
2022/06/02 04:02:02;;;;;;;21.98;8.75;;;23.10;86.80;;;;;;5093773;28;20044;-66
2022/06/02 04:04:48;;;;;;;18.75;8.32;;;23.10;86.90;;;;;;5093919;28;20130;-66
2022/06/02 04:07:59;;;;;;;19.80;8.23;;;23.00;86.40;;;;;;5093576;28;20024;-67
2022/06/02 04:11:00;;;;;;;23.58;8.68;;;23.10;86.50;;;;;;5093402;28;20028;-66
2022/06/02 04:13:39;;;;;;;16.98;7.40;;;23.10;85.80;;;;;;5093448;28;20166;-65
2022/06/02 04:16:31;;;;;;;17.35;7.65;;;23.10;85.80;;;;;;5093661;28;20469;-67
2022/06/02 04:22:24;;;;;;;17.98;7.38;;;23.00;85.30;;;;;;5093401;28;20055;-68
2022/06/02 04:25:14;;;;;;;18.17;7.10;;;23.00;84.30;;;;;;5091718;28;20039;-67
2022/06/02 04:27:56;;;;;;;26.15;7.88;;;23.10;84.90;;;;;;5093325;28;20453;-66
2022/06/02 04:30:26;;;;;;;22.27;7.90;;;23.10;84.60;;;;;;5093536;28;20357;-67
2022/06/02 04:33:09;;;;;;;19.98;7.40;;;23.20;83.60;;;;;;5093260;28;20059;-65
2022/06/02 04:35:57;;;;;;;23.42;8.23;;;23.20;83.40;;;;;;5093325;28;20020;-67
2022/06/02 04:38:33;;;;;;;21.25;8.07;;;23.20;84.30;;;;;;5093362;28;20110;-66
2022/06/02 04:41:30;;;;;;;24.08;8.20;;;23.20;84.20;;;;;;5093079;28;20508;-66
2022/06/02 04:44:20;;;;;;;16.30;7.68;;;23.20;83.70;;;;;;5093247;28;20028;-65
2022/06/02 04:46:52;;;;;;;16.33;6.82;;;23.20;82.70;;;;;;5093129;28;20032;-67
2022/06/02 04:49:26;;;;;;;25.75;7.53;;;23.20;82.80;;;;;;5074821;28;20028;-66
2022/06/02 04:52:05;;;;;;;20.20;7.57;;;23.20;83.30;;;;;;5092999;28;20051;-67
2022/06/02 04:55:07;;;;;;;18.83;7.65;;;23.30;83.10;;;;;;5092773;28;20085;-66
2022/06/02 04:57:36;;;;;;;19.02;7.25;;;23.40;83.00;;;;;;5092862;28;20028;-65
2022/06/02 05:00:12;;;;;;;19.65;7.65;;;23.40;82.00;;;;;;5092740;28;20384;-67
2022/06/02 05:03:35;;;;;;;22.10;7.50;;;23.40;81.80;;;;;;5074386;28;20060;-65
2022/06/02 05:06:31;;;;;;;22.10;7.88;;;23.30;81.90;;;;;;4991365;28;20483;-65
2022/06/02 05:09:39;;;;;;;19.67;7.85;;;23.50;81.50;;;;;;5092984;28;20465;-65
2022/06/02 05:12:23;;;;;;;20.30;7.70;;;23.50;80.90;;;;;;4991248;28;20034;-67
2022/06/02 05:15:33;;;;;;;19.58;7.13;;;23.70;79.80;;;;;;5084336;28;20446;-65
2022/06/02 05:18:23;;;;;;;20.83;6.55;;;23.90;79.10;;;;;;5067057;28;20036;-67
2022/06/02 05:21:13;;;;;;;12.88;6.05;;;24.20;77.20;;;;;;5092306;28;20048;-66
2022/06/02 05:23:54;;;;;;;13.23;5.85;;;24.40;75.20;;;;;;5092803;28;20020;-67
2022/06/02 05:26:46;;;;;;;13.82;5.68;;;24.50;73.20;;;;;;5092623;28;20100;-68
2022/06/02 05:29:18;;;;;;;15.93;5.47;;;24.80;72.30;;;;;;5092424;28;20044;-66
2022/06/02 05:32:01;;;;;;;14.98;5.80;;;25.00;71.40;;;;;;5095016;28;20024;-66
2022/06/02 05:34:36;;;;;;;17.77;5.93;;;25.30;70.40;;;;;;5096597;28;20066;-69
2022/06/02 05:37:16;;;;;;;14.32;4.97;;;25.60;70.20;;;;;;5096707;28;20089;-64
2022/06/02 05:39:51;;;;;;;12.85;4.85;;;25.70;68.70;;;;;;5096459;28;20039;-67
2022/06/02 05:42:20;;;;;;;14.73;6.60;;;25.90;68.20;;;;;;5096367;28;20422;-65
2022/06/02 05:45:23;;;;;;;14.55;6.28;;;26.00;67.70;;;;;;5096410;28;20047;-66
2022/06/02 05:48:12;;;;;;;16.90;5.40;;;26.30;66.70;;;;;;5096573;28;20473;-68
2022/06/02 05:50:58;;;;;;;14.48;5.60;;;26.60;65.60;;;;;;5096310;28;20063;-67
2022/06/02 05:53:47;;;;;;;12.70;5.95;;;26.70;64.80;;;;;;5096472;28;20024;-66
2022/06/02 05:56:30;;;;;;;17.52;5.63;;;26.80;63.60;;;;;;5096405;28;20464;-67
2022/06/02 05:59:04;;;;;;;17.08;5.93;;;26.90;63.70;;;;;;5095947;28;20024;-66
2022/06/02 06:01:30;;;;;;;17.63;5.90;;;27.00;63.40;;;;;;5095941;28;20377;-65
2022/06/02 06:04:07;;;;;;;15.27;5.55;;;27.10;62.90;;;;;;5096043;28;20103;-66
2022/06/02 06:06:42;;;;;;;17.25;6.40;;;27.20;62.10;;;;;;5095927;28;20024;-66
2022/06/02 06:09:46;;;;;;;13.50;5.40;;;27.20;62.20;;;;;;5095527;28;20469;-66
2022/06/02 06:12:43;;;;;;;12.30;5.40;;;27.40;62.30;;;;;;5095995;28;20028;-66
2022/06/02 06:15:17;;;;;;;20.33;6.88;;;27.70;61.40;;;;;;5095785;28;20024;-67
2022/06/02 06:17:50;;;;;;;20.85;6.43;;;27.90;60.00;;;;;;5096125;28;20373;-65
2022/06/02 06:20:51;;;;;;;15.90;6.28;;;28.00;60.50;;;;;;5095573;28;20135;-65
2022/06/02 06:23:56;;;;;;;18.30;5.47;;;28.00;59.60;;;;;;5096061;28;20064;-68
2022/06/02 06:27:13;;;;;;;18.75;5.63;;;28.10;59.90;;;;;;5094810;28;20044;-68
2022/06/02 06:29:49;;;;;;;17.67;6.57;;;28.40;59.00;;;;;;5039869;28;20078;-66
2022/06/02 06:32:39;;;;;;;19.80;6.22;;;28.50;58.30;;;;;;5095676;28;20350;-65
2022/06/02 06:35:48;;;;;;;21.95;5.90;;;28.40;58.50;;;;;;5095566;28;20021;-68
2022/06/02 06:38:52;;;;;;;22.48;6.22;;;28.30;58.50;;;;;;5077137;28;20115;-67
2022/06/02 06:41:48;;;;;;;14.38;5.65;;;28.40;58.50;;;;;;5095125;28;20063;-67
2022/06/02 06:44:21;;;;;;;16.13;5.40;;;28.50;58.80;;;;;;5094431;28;20025;-69
2022/06/02 06:47:04;;;;;;;16.52;5.63;;;28.60;58.40;;;;;;5094974;28;20392;-68
2022/06/02 06:50:00;;;;;;;14.95;5.72;;;28.70;57.90;;;;;;5095181;28;20025;-77
2022/06/02 06:52:53;;;;;;;20.65;6.55;;;29.00;57.10;;;;;;5095154;28;20024;-75
2022/06/02 06:55:34;;;;;;;16.08;5.50;;;28.90;56.80;;;;;;5095216;28;20027;-73
2022/06/02 06:58:07;;;;;;;19.08;5.65;;;29.00;56.80;;;;;;5095075;28;20108;-71
2022/06/02 07:00:56;;;;;;;23.08;6.03;;;28.90;57.00;;;;;;5095017;28;20024;-73
2022/06/02 07:03:51;;;;;;;15.20;4.90;;;28.80;56.10;;;;;;5076805;28;20028;-76
2022/06/02 07:06:23;;;;;;;14.25;5.10;;;28.80;56.40;;;;;;5095087;28;20077;-74
2022/06/02 07:09:05;;;;;;;14.50;5.20;;;28.80;56.70;;;;;;5094886;28;20032;-74
2022/06/02 07:15:09;;;;;;;13.00;4.50;;;29.00;54.50;;;;;;5061072;28;20035;-74
2022/06/02 07:17:59;;;;;;;16.15;4.65;;;29.00;56.20;;;;;;5095030;28;20031;-75
2022/06/02 07:20:35;;;;;;;16.77;4.65;;;29.10;54.70;;;;;;5094596;28;20378;-74
2022/06/02 07:23:13;;;;;;;14.52;4.82;;;29.20;55.80;;;;;;5094624;28;20059;-74
2022/06/02 07:26:03;;;;;;;15.13;4.88;;;29.40;54.30;;;;;;5094530;28;20028;-74
2022/06/02 07:28:55;;;;;;;11.85;4.43;;;29.40;53.60;;;;;;5094057;28;20055;-74
2022/06/02 07:31:38;;;;;;;11.50;4.78;;;29.60;53.80;;;;;;5094523;28;20138;-75
2022/06/02 07:34:19;;;;;;;14.02;4.38;;;29.70;53.50;;;;;;5076020;28;20024;-74
2022/06/02 07:37:22;;;;;;;14.88;5.20;;;29.60;53.50;;;;;;5094180;28;20024;-77
2022/06/02 07:39:57;;;;;;;16.70;4.50;;;29.70;53.60;;;;;;5094162;28;20042;-73
2022/06/02 07:42:36;;;;;;;13.40;4.53;;;29.90;55.00;;;;;;5093967;28;20047;-77
2022/06/02 07:45:16;;;;;;;15.95;4.53;;;29.90;54.20;;;;;;5093977;28;20373;-74
2022/06/02 07:47:45;;;;;;;11.85;4.50;;;29.80;52.70;;;;;;5091971;28;20131;-73
2022/06/02 07:50:30;;;;;;;17.85;4.43;;;29.80;52.90;;;;;;5092658;28;20027;-77
2022/06/02 07:53:29;;;;;;;12.85;3.50;;;29.80;52.60;;;;;;5093953;28;20093;-73
2022/06/02 07:56:13;;;;;;;15.60;4.85;;;29.90;53.70;;;;;;5093878;28;20028;-72
2022/06/02 07:59:00;;;;;;;18.20;5.10;;;30.10;52.00;;;;;;5093839;28;20035;-74
2022/06/02 08:01:33;;;;;;;12.05;4.80;;;30.30;51.60;;;;;;5093929;28;20049;-73
2022/06/02 08:04:13;;;;;;;27.73;5.65;;;30.40;52.90;;;;;;5093722;28;20027;-72
2022/06/02 08:06:49;;;;;;;15.98;4.40;;;30.50;51.40;;;;;;5093763;28;20036;-72
2022/06/02 08:09:38;;;;;;;16.75;4.15;;;30.50;51.00;;;;;;5093548;28;20055;-72
2022/06/02 08:12:27;;;;;;;14.55;4.65;;;30.50;50.20;;;;;;5093568;28;20537;-72
2022/06/02 08:15:18;;;;;;;10.55;4.30;;;30.50;50.40;;;;;;5093802;28;20024;-74
2022/06/02 08:17:50;;;;;;;12.35;4.10;;;30.40;49.90;;;;;;5093962;28;20103;-71
2022/06/02 08:20:23;;;;;;;13.15;3.88;;;30.40;50.80;;;;;;5092854;28;20048;-71
2022/06/02 08:23:24;;;;;;;13.15;3.80;;;30.40;50.30;;;;;;5081395;28;20028;-72
2022/06/02 08:26:18;;;;;;;10.98;3.78;;;30.40;48.30;;;;;;5093416;28;20028;-72
2022/06/02 08:28:58;;;;;;;11.13;3.47;;;30.40;49.00;;;;;;5092534;28;20122;-73
2022/06/02 08:31:29;;;;;;;14.45;4.47;;;30.40;48.30;;;;;;5075669;28;20024;-75
2022/06/02 08:34:26;;;;;;;18.05;4.53;;;30.40;49.00;;;;;;5080876;28;20409;-73
2022/06/02 08:37:30;;;;;;;13.82;4.03;;;30.30;48.30;;;;;;5093845;28;20075;-71
2022/06/02 08:40:23;;;;;;;11.98;3.75;;;30.20;50.50;;;;;;5055289;28;20499;-72
2022/06/02 08:43:02;;;;;;;13.73;3.92;;;30.30;49.20;;;;;;5066498;28;20047;-72
2022/06/02 08:46:05;;;;;;;12.10;3.85;;;30.30;50.00;;;;;;5093328;28;20473;-73
2022/06/02 08:48:52;;;;;;;12.25;3.20;;;30.20;48.50;;;;;;5091664;28;20023;-74
2022/06/02 08:51:45;;;;;;;12.77;3.70;;;30.20;49.40;;;;;;5075001;28;20028;-72
2022/06/02 08:54:22;;;;;;;13.07;4.10;;;30.20;49.10;;;;;;5093400;28;20032;-71
2022/06/02 08:57:03;;;;;;;12.55;3.92;;;30.20;49.30;;;;;;5093470;28;20048;-73
2022/06/02 08:59:53;;;;;;;14.63;3.85;;;30.20;49.20;;;;;;5093348;28;20460;-70
2022/06/02 09:02:50;;;;;;;14.32;4.43;;;30.20;48.90;;;;;;5093240;28;20085;-74
2022/06/02 09:05:37;;;;;;;10.90;3.63;;;30.20;49.30;;;;;;5093652;28;20024;-75
2022/06/02 09:08:39;;;;;;;15.30;3.80;;;30.20;47.90;;;;;;5093367;28;20047;-73
2022/06/02 09:11:22;;;;;;;10.80;3.42;;;30.30;48.10;;;;;;5093097;28;20048;-77
2022/06/02 09:14:03;;;;;;;12.05;3.78;;;30.40;46.80;;;;;;5093202;28;20021;-75
2022/06/02 09:16:55;;;;;;;12.75;3.17;;;30.40;48.70;;;;;;5092961;28;20024;-73
2022/06/02 09:19:38;;;;;;;12.20;3.65;;;30.40;47.20;;;;;;5092662;28;20385;-73
2022/06/02 09:22:31;;;;;;;15.98;3.28;;;30.40;47.10;;;;;;5093082;28;20101;-72
2022/06/02 09:25:05;;;;;;;;;;;30.50;47.10;;;;;;5093340;28;20039;-71
2022/06/02 09:27:49;;;;;;;10.52;2.90;;;30.50;48.30;;;;;;5093531;28;20325;-72
2022/06/02 09:30:19;;;;;;;10.75;3.35;;;30.50;45.80;;;;;;5092896;28;20082;-71
2022/06/02 09:33:34;;;;;;;11.38;3.15;;;30.60;48.70;;;;;;5090301;28;20036;-71
2022/06/02 09:36:27;;;;;;;20.77;5.43;;;30.60;46.00;;;;;;5093050;28;20361;-71
2022/06/02 09:39:40;;;;;;;10.30;4.07;;;30.60;46.90;;;;;;5087157;28;20020;-71
2022/06/02 09:42:39;;;;;;;11.13;2.95;;;30.70;46.10;;;;;;5078311;28;20048;-72
2022/06/02 09:45:13;;;;;;;10.90;3.00;;;30.70;44.90;;;;;;5092565;28;20027;-71
2022/06/02 09:48:05;;;;;;;14.27;3.70;;;30.80;44.70;;;;;;5086464;28;20417;-70
2022/06/02 09:51:08;;;;;;;17.65;6.35;;;30.90;43.90;;;;;;5092078;28;20036;-72
2022/06/02 09:53:55;;;;;;;11.27;3.35;;;31.00;45.80;;;;;;5082311;28;20024;-70
2022/06/02 09:56:42;;;;;;;11.30;4.65;;;31.00;44.60;;;;;;5077337;28;20482;-73
2022/06/02 09:59:10;;;;;;;11.73;3.13;;;31.00;44.10;;;;;;5082526;28;20020;-73
2022/06/02 10:02:04;;;;;;;12.90;3.70;;;31.10;44.40;;;;;;5080268;28;20096;-73
2022/06/02 10:04:35;;;;;;;13.70;4.13;;;31.10;43.20;;;;;;5087092;28;20035;-73
2022/06/02 10:07:40;;;;;;;14.80;3.40;;;31.20;43.10;;;;;;5092768;28;20055;-72
2022/06/02 10:10:28;;;;;;;9.38;3.15;;;31.30;42.70;;;;;;5088612;28;20040;-73
2022/06/02 10:13:30;;;;;;;9.48;3.67;;;31.30;42.30;;;;;;5092379;28;20085;-71
2022/06/02 10:16:09;;;;;;;8.10;2.95;;;31.30;42.00;;;;;;5092327;28;20031;-72
2022/06/02 10:18:53;;;;;;;7.88;2.70;;;31.40;41.20;;;;;;5096079;28;20016;-74
2022/06/02 10:21:31;;;;;;;8.70;3.45;;;31.40;41.10;;;;;;5095688;28;20084;-72
2022/06/02 10:24:15;;;;;;;14.00;4.45;;;31.50;41.90;;;;;;5096366;28;20094;-72
2022/06/02 10:27:11;;;;;;;7.97;2.72;;;31.50;42.60;;;;;;5096285;28;20169;-73
2022/06/02 10:29:39;;;;;;;9.05;2.95;;;31.50;41.50;;;;;;5095768;28;20035;-74
2022/06/02 10:32:46;;;;;;;9.20;3.28;;;31.60;40.80;;;;;;5095980;28;20020;-69
2022/06/02 10:35:50;;;;;;;13.27;3.67;;;31.60;39.60;;;;;;5095849;28;20472;-70
2022/06/02 10:38:40;;;;;;;10.10;3.53;;;31.80;38.80;;;;;;5095523;28;20024;-70
2022/06/02 10:41:43;;;;;;;9.98;3.78;;;31.90;37.60;;;;;;5095386;28;20138;-71
2022/06/02 10:44:38;;;;;;;8.18;2.60;;;32.10;37.20;;;;;;5077302;28;20119;-71
2022/06/02 10:47:36;;;;;;;11.13;4.05;;;32.20;34.80;;;;;;5078166;28;20037;-72
2022/06/02 10:50:21;;;;;;;7.25;2.50;;;32.20;36.40;;;;;;5093970;28;20028;-71
2022/06/02 10:53:05;;;;;;;12.48;3.92;;;32.20;35.50;;;;;;5077257;28;20051;-70
2022/06/02 10:55:50;;;;;;;11.75;4.60;;;32.30;34.30;;;;;;5095374;28;20265;-74
2022/06/02 10:58:37;;;;;;;26.65;10.48;;;32.30;36.20;;;;;;5095121;28;20039;-72
2022/06/02 11:01:27;;;;;;;34.30;10.60;;;32.30;38.30;;;;;;5076612;28;20503;-72
2022/06/02 11:04:21;;;;;;;10.38;4.30;;;32.30;38.70;;;;;;5095135;28;20030;-72
2022/06/02 11:07:08;;;;;;;8.98;3.05;;;32.40;37.70;;;;;;5076795;28;20048;-72
2022/06/02 11:09:40;;;;;;;11.30;3.20;;;32.50;35.80;;;;;;5094927;28;20024;-71
2022/06/02 11:12:33;;;;;;;11.18;3.10;;;32.60;35.60;;;;;;5094953;28;20077;-72
2022/06/02 11:15:06;;;;;;;9.27;4.05;;;32.70;34.50;;;;;;5095175;28;20081;-71
2022/06/02 11:17:50;;;;;;;10.52;4.20;;;32.80;34.80;;;;;;5095254;28;20036;-72
2022/06/02 11:20:34;;;;;;;10.80;3.70;;;32.80;34.90;;;;;;5076498;28;20044;-75
2022/06/02 11:23:22;;;;;;;9.73;3.00;;;32.90;34.70;;;;;;5095202;28;20453;-73
2022/06/02 11:26:26;;;;;;;9.55;3.30;;;33.00;34.00;;;;;;5094851;28;20069;-73
2022/06/02 11:29:10;;;;;;;11.48;3.55;;;33.10;32.90;;;;;;5093751;28;20084;-72
2022/06/02 11:31:42;;;;;;;13.48;5.20;;;33.20;33.40;;;;;;5094824;28;20032;-71
2022/06/02 11:34:31;;;;;;;11.50;2.95;;;33.30;34.40;;;;;;5094579;28;20059;-72
2022/06/02 11:37:00;;;;;;;16.20;5.50;;;33.30;32.50;;;;;;5094567;28;20036;-72
2022/06/02 11:39:32;;;;;;;16.45;5.55;;;33.40;34.10;;;;;;5094409;28;20016;-72
2022/06/02 11:42:42;;;;;;;12.45;3.60;;;33.40;34.00;;;;;;5094348;28;20036;-71
2022/06/02 11:45:37;;;;;;;8.73;3.92;;;33.40;34.00;;;;;;5012052;28;20021;-72
2022/06/02 11:48:33;;;;;;;11.60;5.53;;;33.50;34.00;;;;;;5012166;28;20030;-73
2022/06/02 11:51:30;;;;;;;8.60;2.70;;;33.50;34.60;;;;;;5083457;28;20051;-73
2022/06/02 11:54:19;;;;;;;14.10;3.95;;;33.60;33.40;;;;;;5094173;28;20150;-71
2022/06/02 11:56:50;;;;;;;8.77;3.10;;;33.70;33.20;;;;;;5094174;28;20098;-73
2022/06/02 11:59:30;;;;;;;7.32;2.83;;;33.70;31.90;;;;;;5075718;28;20039;-71
2022/06/02 12:02:32;;;;;;;9.98;3.60;;;33.80;32.00;;;;;;5093807;28;20153;-72
2022/06/02 12:05:13;;;;;;;8.07;3.72;;;33.90;32.40;;;;;;5093961;28;20485;-71
2022/06/02 12:07:57;;;;;;;6.45;2.47;;;33.80;32.60;;;;;;5093576;28;20032;-70
2022/06/02 12:11:02;;;;;;;14.35;5.43;;;33.80;31.10;;;;;;5093870;28;20420;-71
2022/06/02 12:13:46;;;;;;;9.40;3.60;;;33.90;33.60;;;;;;5093804;28;20035;-72
2022/06/02 12:16:29;;;;;;;7.38;2.85;;;33.90;33.20;;;;;;5093854;28;20024;-70
2022/06/02 12:19:07;;;;;;;5.63;2.72;;;34.10;31.20;;;;;;5093539;28;20031;-72
2022/06/02 12:22:06;;;;;;;7.32;2.42;;;34.20;30.40;;;;;;5093334;28;20051;-71
2022/06/02 12:24:49;;;;;;;5.10;2.08;;;34.30;29.50;;;;;;5093988;28;20085;-74
2022/06/02 12:27:47;;;;;;;5.28;1.85;;;34.40;29.20;;;;;;5075523;28;20101;-72
2022/06/02 12:30:38;;;;;;;10.10;3.13;;;34.50;29.10;;;;;;5048878;28;20427;-72
2022/06/02 12:33:30;;;;;;;14.73;4.35;;;34.50;34.70;;;;;;5062495;28;20064;-70
2022/06/02 12:36:17;;;;;;;15.18;4.20;;;34.50;38.60;;;;;;5093606;28;20024;-71
2022/06/02 12:39:25;;;;;;;9.20;4.10;;;34.50;40.60;;;;;;5093573;28;20023;-70
2022/06/02 12:42:15;;;;;;;13.57;4.05;;;34.40;42.60;;;;;;5093423;28;20074;-72
2022/06/02 12:45:12;;;;;;;19.40;4.35;;;34.30;42.80;;;;;;5093524;28;20457;-71
2022/06/02 12:48:12;;;;;;;14.88;4.55;;;34.20;43.50;;;;;;5093392;28;20362;-71
2022/06/02 12:50:47;;;;;;;10.57;4.60;;;34.20;43.80;;;;;;5093385;28;20378;-70
2022/06/02 12:53:46;;;;;;;12.45;3.70;;;34.10;43.90;;;;;;5074830;28;20085;-70
2022/06/02 12:56:42;;;;;;;11.93;4.60;;;34.10;45.30;;;;;;5093042;28;20032;-70
2022/06/02 12:59:36;;;;;;;13.63;4.63;;;34.00;45.40;;;;;;5093144;28;20383;-72
2022/06/02 13:02:08;;;;;;;12.35;4.55;;;34.00;45.00;;;;;;5093034;28;20052;-71
2022/06/02 13:04:55;;;;;;;11.02;3.75;;;34.00;45.40;;;;;;5093226;28;20103;-71
2022/06/02 13:07:45;;;;;;;13.95;4.18;;;34.00;45.50;;;;;;5092989;28;20031;-72
2022/06/02 13:10:30;;;;;;;15.07;4.00;;;34.00;45.20;;;;;;5093064;28;20028;-74
2022/06/02 13:13:30;;;;;;;13.35;4.10;;;33.90;46.70;;;;;;5093223;28;20030;-72
2022/06/02 13:16:06;;;;;;;13.65;4.18;;;33.80;46.10;;;;;;5075513;28;20036;-71
2022/06/02 13:18:52;;;;;;;12.27;4.30;;;33.70;46.60;;;;;;5092976;28;20119;-71
2022/06/02 13:21:48;;;;;;;13.30;4.40;;;33.70;46.70;;;;;;5092847;28;20396;-71
2022/06/02 13:24:23;;;;;;;12.50;4.10;;;33.70;46.40;;;;;;5074940;28;20043;-69
2022/06/02 13:27:06;;;;;;;10.32;4.13;;;33.70;46.90;;;;;;5093094;28;20032;-72
2022/06/02 13:30:02;;;;;;;12.25;3.85;;;33.60;46.60;;;;;;5092904;28;20380;-73
2022/06/02 13:32:49;;;;;;;12.82;4.30;;;33.50;46.50;;;;;;5092979;28;20469;-72
2022/06/02 13:35:41;;;;;;;11.23;4.20;;;33.50;46.80;;;;;;5092749;28;20063;-73
2022/06/02 13:38:26;;;;;;;9.63;4.03;;;33.50;46.80;;;;;;5093137;28;20059;-71
2022/06/02 13:41:10;;;;;;;11.75;4.35;;;33.50;46.80;;;;;;5092546;28;20469;-70
2022/06/02 13:44:25;;;;;;;16.05;5.78;;;33.50;47.00;;;;;;5092567;28;20085;-70
2022/06/02 13:46:59;;;;;;;13.82;5.60;;;33.50;47.00;;;;;;5010860;28;20038;-70
2022/06/02 13:49:45;;;;;;;11.43;4.18;;;33.50;47.00;;;;;;5011280;28;20030;-69
2022/06/02 13:52:29;;;;;;;12.45;5.47;;;33.40;46.70;;;;;;5066510;28;20042;-68
2022/06/02 13:58:21;;;;;;;15.73;5.53;;;33.40;46.70;;;;;;5096337;28;20035;-70
2022/06/02 14:01:16;;;;;;;22.73;4.72;;;33.40;46.80;;;;;;5096185;28;20028;-71
2022/06/02 14:04:19;;;;;;;10.90;4.15;;;33.50;47.30;;;;;;5093945;28;20036;-71
2022/06/02 14:06:52;;;;;;;13.93;4.55;;;33.40;46.90;;;;;;5077892;28;20032;-69
2022/06/02 14:09:44;;;;;;;9.43;3.95;;;33.30;47.40;;;;;;5096039;28;20097;-67
2022/06/02 14:12:53;;;;;;;10.90;4.00;;;33.20;46.90;;;;;;5096259;28;20027;-69
2022/06/02 14:15:44;;;;;;;10.32;3.70;;;33.30;47.10;;;;;;5063423;28;20020;-68
2022/06/02 14:18:26;;;;;;;9.23;3.88;;;33.20;46.60;;;;;;5096180;28;20024;-69
2022/06/02 14:21:23;;;;;;;13.52;4.28;;;33.20;46.90;;;;;;5095805;28;20032;-68
2022/06/02 14:23:49;;;;;;;17.38;6.22;;;33.30;46.40;;;;;;5093551;28;20148;-70
2022/06/02 14:26:23;;;;;;;36.20;10.45;;;33.30;46.70;;;;;;5095045;28;20468;-70
2022/06/02 14:29:20;;;;;;;24.08;7.18;;;33.30;46.90;;;;;;5095804;28;20028;-70